createdAt,value
2018-01-20T00:00:05.846Z,6.80
2018-01-20T00:02:34.231Z,7.22
2018-01-20T00:05:02.536Z,6.30
2018-01-20T00:07:30.856Z,7.10
2018-01-20T00:10:14.800Z,6.57
2018-01-20T00:12:43.099Z,7.03
2018-01-20T00:15:11.403Z,6.77
2018-01-20T00:17:39.776Z,6.60
2018-01-20T00:20:08.842Z,6.27
2018-01-20T00:22:37.139Z,5.20
2018-01-20T00:25:06.240Z,3.50
2018-01-20T00:27:36.659Z,4.73
2018-01-20T00:30:04.976Z,4.30
2018-01-20T00:32:33.652Z,4.17
2018-01-20T00:35:02.008Z,3.78
2018-01-20T00:37:31.063Z,2.90
2018-01-20T00:39:59.412Z,3.63
2018-01-20T00:42:27.716Z,2.87
2018-01-20T00:44:56.035Z,3.30
2018-01-20T00:47:24.391Z,3.00
2018-01-20T00:49:52.700Z,2.90
2018-01-20T00:52:20.999Z,3.47
2018-01-20T00:54:49.363Z,2.87
2018-01-20T00:57:17.681Z,2.80
2018-01-20T00:59:45.975Z,3.10
2018-01-20T01:02:14.335Z,2.40
2018-01-20T01:04:42.649Z,2.37
2018-01-20T01:07:10.992Z,2.60
2018-01-20T01:09:39.425Z,2.40
2018-01-20T01:12:07.773Z,2.30
2018-01-20T01:14:36.088Z,2.60
2018-01-20T01:17:04.510Z,1.90
2018-01-20T01:19:34.580Z,3.10
2018-01-20T01:22:02.956Z,3.00
2018-01-20T01:24:31.641Z,1.92
2018-01-20T01:27:00.809Z,2.00
2018-01-20T01:29:29.169Z,2.28
2018-01-20T01:31:57.580Z,2.40
2018-01-20T01:34:25.916Z,2.37
2018-01-20T01:36:54.228Z,2.50
2018-01-20T01:39:23.417Z,2.67
2018-01-20T01:41:51.724Z,2.95
2018-01-20T01:44:20.036Z,3.22
2018-01-20T01:46:48.867Z,3.10
2018-01-20T01:49:17.172Z,3.53
2018-01-20T01:51:45.480Z,3.00
2018-01-20T01:54:13.994Z,3.60
2018-01-20T01:56:42.295Z,3.30
2018-01-20T01:59:11.367Z,3.62
2018-01-20T02:01:39.720Z,3.17
2018-01-20T02:04:08.023Z,3.28
2018-01-20T02:06:36.327Z,3.40
2018-01-20T02:09:04.675Z,3.05
2018-01-20T02:11:33.766Z,3.60
2018-01-20T02:14:02.080Z,3.42
2018-01-20T02:16:31.439Z,3.20
2018-01-20T02:18:59.919Z,4.43
2018-01-20T02:21:28.223Z,2.95
2018-01-20T02:23:56.587Z,3.23
2018-01-20T02:26:24.900Z,3.20
2018-01-20T02:28:53.967Z,3.60
2018-01-20T02:31:22.872Z,3.17
2018-01-20T02:33:52.031Z,2.85
2018-01-20T02:36:21.053Z,2.97
2018-01-20T02:38:49.380Z,3.33
2018-01-20T02:41:17.695Z,3.70
2018-01-20T02:43:46.023Z,2.50
2018-01-20T02:46:14.376Z,2.58
2018-01-20T02:48:43.443Z,2.13
2018-01-20T02:51:11.743Z,2.03
2018-01-20T02:53:40.860Z,2.23
2018-01-20T02:56:09.163Z,2.50
2018-01-20T02:58:37.512Z,2.00
2018-01-20T03:01:06.663Z,2.43
2018-01-20T03:03:34.968Z,2.42
2018-01-20T03:06:03.284Z,2.67
2018-01-20T03:08:32.036Z,2.13
2018-01-20T03:11:00.335Z,2.37
2018-01-20T03:13:29.042Z,2.12
2018-01-20T03:15:57.650Z,2.03
2018-01-20T03:18:25.959Z,2.67
2018-01-20T03:20:54.268Z,1.52
2018-01-20T03:23:22.883Z,1.90
2018-01-20T03:25:51.188Z,1.90
2018-01-20T03:28:19.587Z,1.80
2018-01-20T03:30:48.057Z,2.33
2018-01-20T03:33:16.367Z,2.08
2018-01-20T03:35:44.672Z,1.65
2018-01-20T03:38:13.054Z,2.85
2018-01-20T03:40:41.359Z,1.58
2018-01-20T03:43:10.438Z,2.33
2018-01-20T03:45:38.815Z,2.17
2018-01-20T03:48:07.172Z,1.30
2018-01-20T03:50:35.922Z,1.73
2018-01-20T03:53:04.275Z,2.30
2018-01-20T03:55:32.580Z,2.20
2018-01-20T03:58:01.655Z,1.55
2018-01-20T04:00:31.044Z,1.70
2018-01-20T04:02:59.347Z,1.45
2018-01-20T04:05:28.416Z,1.53
2018-01-20T04:07:57.243Z,1.60
2018-01-20T04:10:25.547Z,1.43
2018-01-20T04:12:53.851Z,1.20
2018-01-20T04:15:22.188Z,1.67
2018-01-20T04:17:50.487Z,1.47
2018-01-20T04:20:19.011Z,1.60
2018-01-20T04:22:47.347Z,1.35
2018-01-20T04:25:15.775Z,1.27
2018-01-20T04:27:44.133Z,1.70
2018-01-20T04:30:13.215Z,1.45
2018-01-20T04:32:41.524Z,1.67
2018-01-20T04:35:10.893Z,1.20
2018-01-20T04:37:39.268Z,1.27
2018-01-20T04:40:07.580Z,1.15
2018-01-20T04:42:37.289Z,1.20
2018-01-20T04:45:05.635Z,1.37
2018-01-20T04:47:33.973Z,1.37
2018-01-20T04:50:02.312Z,1.37
2018-01-20T04:52:30.638Z,1.10
2018-01-20T04:54:58.944Z,1.50
2018-01-20T04:57:27.351Z,1.90
2018-01-20T04:59:56.735Z,1.33
2018-01-20T05:02:25.048Z,1.50
2018-01-20T05:04:53.466Z,1.27
2018-01-20T05:07:21.782Z,1.50
2018-01-20T05:09:50.095Z,1.37
2018-01-20T05:12:18.798Z,1.00
2018-01-20T05:14:47.100Z,1.60
2018-01-20T05:17:15.408Z,1.37
2018-01-20T05:19:44.526Z,1.50
2018-01-20T05:22:12.832Z,1.10
2018-01-20T05:24:41.141Z,2.08
2018-01-20T05:27:10.193Z,1.62
2018-01-20T05:29:38.495Z,2.30
2018-01-20T05:32:06.804Z,1.42
2018-01-20T05:34:36.395Z,1.52
2018-01-20T05:37:04.707Z,1.70
2018-01-20T05:39:33.779Z,1.67
2018-01-20T05:42:02.128Z,1.60
2018-01-20T05:44:30.431Z,2.53
2018-01-20T05:46:58.743Z,1.40
2018-01-20T05:49:27.351Z,1.80
2018-01-20T05:51:55.649Z,2.22
2018-01-20T05:54:23.963Z,2.12
2018-01-20T05:56:52.477Z,1.70
2018-01-20T05:59:20.783Z,1.60
2018-01-20T06:01:49.284Z,2.00
2018-01-20T06:04:17.643Z,2.35
2018-01-20T06:06:45.963Z,2.08
2018-01-20T06:09:14.282Z,1.92
2018-01-20T06:11:42.628Z,2.20
2018-01-20T06:14:11.704Z,1.90
2018-01-20T06:16:40.781Z,2.62
2018-01-20T06:19:09.135Z,2.30
2018-01-20T06:21:37.451Z,2.73
2018-01-20T06:24:05.819Z,2.70
2018-01-20T06:26:34.294Z,2.50
2018-01-20T06:29:02.616Z,3.45
2018-01-20T06:31:30.927Z,2.60
2018-01-20T06:33:59.359Z,2.80
2018-01-20T06:36:27.680Z,2.50
2018-01-20T06:38:56.001Z,3.63
2018-01-20T06:41:24.339Z,3.35
2018-01-20T06:43:52.652Z,3.95
2018-01-20T06:46:20.959Z,4.03
2018-01-20T06:48:50.084Z,4.40
2018-01-20T06:51:18.950Z,3.50
2018-01-20T06:53:47.270Z,4.65
2018-01-20T06:56:15.635Z,4.37
2018-01-20T06:58:43.940Z,3.77
2018-01-20T07:01:12.247Z,4.32
2018-01-20T07:03:41.359Z,3.87
2018-01-20T07:06:09.673Z,5.20
2018-01-20T07:08:37.976Z,3.40
2018-01-20T07:11:06.339Z,3.97
2018-01-20T07:13:35.409Z,4.47
2018-01-20T07:16:03.723Z,7.30
2018-01-20T07:18:32.091Z,5.25
2018-01-20T07:21:00.400Z,6.10
2018-01-20T07:23:28.700Z,6.07
2018-01-20T07:25:57.107Z,4.77
2018-01-20T07:28:25.430Z,5.55
2018-01-20T07:30:53.743Z,4.00
2018-01-20T07:33:22.324Z,5.10
2018-01-20T07:35:50.632Z,7.67
2018-01-20T07:38:18.943Z,4.17
2018-01-20T07:40:47.280Z,4.00
2018-01-20T07:43:15.575Z,3.40
2018-01-20T07:45:43.871Z,3.90
2018-01-20T07:48:12.223Z,4.00
2018-01-20T07:50:40.526Z,3.70
2018-01-20T07:53:08.835Z,3.80
2018-01-20T07:55:37.551Z,4.17
2018-01-20T07:58:05.869Z,4.70
2018-01-20T08:00:34.172Z,5.40
2018-01-20T08:03:03.280Z,7.30
2018-01-20T08:05:31.575Z,6.40
2018-01-20T08:07:59.879Z,5.80
2018-01-20T08:10:28.231Z,7.93
2018-01-20T08:12:56.531Z,6.33
2018-01-20T08:15:24.834Z,5.97
2018-01-20T08:17:53.435Z,6.27
2018-01-20T08:20:22.200Z,6.17
2018-01-20T08:22:50.491Z,6.07
2018-01-20T08:25:19.603Z,13.37
2018-01-20T08:27:47.919Z,6.10
2018-01-20T08:30:16.859Z,5.37
2018-01-20T08:32:45.159Z,4.33
2018-01-20T08:35:13.464Z,4.43
2018-01-20T08:37:41.783Z,5.63
2018-01-20T08:40:10.849Z,4.67
2018-01-20T08:42:39.189Z,5.20
2018-01-20T08:45:07.488Z,5.10
2018-01-20T08:47:35.796Z,4.50
2018-01-20T08:50:04.492Z,4.00
2018-01-20T08:52:33.074Z,5.20
2018-01-20T08:55:01.380Z,5.33
2018-01-20T08:57:29.724Z,4.23
2018-01-20T08:59:58.832Z,3.70
2018-01-20T09:02:27.136Z,3.97
2018-01-20T09:04:55.478Z,4.40
2018-01-20T09:07:24.369Z,4.90
2018-01-20T09:09:52.666Z,3.90
2018-01-20T09:12:21.795Z,3.10
2018-01-20T09:14:50.086Z,3.60
2018-01-20T09:17:18.395Z,3.07
2018-01-20T09:19:46.747Z,3.60
2018-01-20T09:22:15.050Z,3.40
2018-01-20T09:24:44.059Z,3.40
2018-01-20T09:27:12.395Z,4.00
2018-01-20T09:29:41.332Z,3.20
2018-01-20T09:32:10.831Z,3.13
2018-01-20T09:34:39.900Z,2.97
2018-01-20T09:37:08.204Z,3.17
2018-01-20T09:39:37.975Z,2.40
2018-01-20T09:42:06.583Z,1.87
2018-01-20T09:44:34.884Z,4.00
2018-01-20T09:47:03.952Z,2.87
2018-01-20T09:49:32.331Z,2.90
2018-01-20T09:52:00.710Z,4.37
2018-01-20T09:54:29.220Z,11.70
2018-01-20T09:56:58.335Z,3.07
2018-01-20T09:59:26.644Z,3.83
2018-01-20T10:01:54.951Z,3.10
2018-01-20T10:04:23.288Z,3.30
2018-01-20T10:06:51.596Z,2.23
2018-01-20T10:09:20.287Z,2.43
2018-01-20T10:11:49.326Z,2.63
2018-01-20T10:14:17.669Z,2.40
2018-01-20T10:16:45.959Z,2.70
2018-01-20T10:19:14.579Z,3.33
2018-01-20T10:21:43.011Z,2.97
2018-01-20T10:24:11.338Z,2.83
2018-01-20T10:26:40.591Z,3.40
2018-01-20T10:29:09.333Z,2.97
2018-01-20T10:31:38.431Z,5.03
2018-01-20T10:34:07.387Z,3.40
2018-01-20T10:36:35.715Z,2.90
2018-01-20T10:39:04.123Z,3.40
2018-01-20T10:41:33.003Z,3.10
2018-01-20T10:44:01.369Z,2.80
2018-01-20T10:46:29.667Z,3.40
2018-01-20T10:48:58.275Z,2.47
2018-01-20T10:51:26.739Z,2.80
2018-01-20T10:53:56.567Z,2.60
2018-01-20T10:56:24.882Z,3.33
2018-01-20T10:58:53.327Z,2.83
2018-01-20T11:01:21.635Z,2.23
2018-01-20T11:03:49.934Z,2.00
2018-01-20T11:06:18.276Z,2.20
2018-01-20T11:08:46.582Z,2.50
2018-01-20T11:11:14.883Z,2.40
2018-01-20T11:13:43.239Z,1.90
2018-01-20T11:16:11.551Z,2.07
2018-01-20T11:18:40.715Z,2.73
2018-01-20T11:21:09.255Z,2.50
2018-01-20T11:23:38.468Z,2.87
2018-01-20T11:26:06.940Z,2.10
2018-01-20T11:28:35.403Z,1.93
2018-01-20T11:31:05.427Z,2.40
2018-01-20T11:33:33.853Z,2.17
2018-01-20T11:36:02.187Z,3.20
2018-01-20T11:38:30.529Z,2.43
2018-01-20T11:40:58.943Z,2.00
2018-01-20T11:43:27.319Z,3.80
2018-01-20T11:45:55.623Z,2.20
2018-01-20T11:48:24.471Z,2.10
2018-01-20T11:50:53.536Z,2.40
2018-01-20T11:53:21.835Z,2.63
2018-01-20T11:55:50.943Z,2.20
2018-01-20T11:58:20.311Z,2.00
2018-01-20T12:00:50.095Z,2.03
2018-01-20T12:03:19.096Z,2.40
2018-01-20T12:05:48.040Z,2.67
2018-01-20T12:08:16.720Z,1.90
2018-01-20T12:10:45.739Z,1.80
2018-01-20T12:13:14.046Z,1.70
2018-01-20T12:15:42.451Z,2.00
2018-01-20T12:18:10.932Z,1.60
2018-01-20T12:20:39.235Z,1.83
2018-01-20T12:23:07.544Z,3.07
2018-01-20T12:25:36.231Z,1.60
2018-01-20T12:28:04.619Z,2.27
2018-01-20T12:30:32.938Z,1.73
2018-01-20T12:33:01.929Z,1.50
2018-01-20T12:35:30.239Z,1.90
2018-01-20T12:37:58.535Z,2.00
2018-01-20T12:40:26.880Z,2.50
2018-01-20T12:42:56.558Z,1.80
2018-01-20T12:45:24.856Z,1.80
2018-01-20T12:47:53.188Z,2.20
2018-01-20T12:50:22.295Z,1.83
2018-01-20T12:52:51.398Z,1.37
2018-01-20T12:55:20.507Z,2.47
2018-01-20T12:57:48.795Z,1.93
2018-01-20T13:00:17.094Z,2.40
2018-01-20T13:02:45.431Z,2.97
2018-01-20T13:05:14.335Z,2.70
2018-01-20T13:07:42.650Z,3.13
2018-01-20T13:10:10.992Z,2.90
2018-01-20T13:12:39.301Z,2.63
2018-01-20T13:15:07.604Z,2.13
2018-01-20T13:17:35.944Z,1.90
2018-01-20T13:20:05.007Z,1.77
2018-01-20T13:22:33.308Z,1.93
2018-01-20T13:25:02.455Z,1.53
2018-01-20T13:27:31.279Z,1.90
2018-01-20T13:29:59.916Z,2.50
2018-01-20T13:32:28.680Z,1.80
2018-01-20T13:34:57.762Z,1.73
2018-01-20T13:37:26.886Z,1.37
2018-01-20T13:39:55.179Z,1.40
2018-01-20T13:42:23.537Z,2.47
2018-01-20T13:44:51.868Z,3.17
2018-01-20T13:47:20.759Z,2.00
2018-01-20T13:49:49.060Z,1.67
2018-01-20T13:52:18.167Z,2.60
2018-01-20T13:54:46.475Z,3.07
2018-01-20T13:57:14.831Z,2.87
2018-01-20T13:59:43.188Z,1.93
2018-01-20T14:02:11.895Z,2.10
2018-01-20T14:04:41.197Z,1.80
2018-01-20T14:07:09.507Z,2.10
2018-01-20T14:09:38.175Z,4.07
2018-01-20T14:12:06.508Z,7.53
2018-01-20T14:14:34.807Z,4.43
2018-01-20T14:17:03.143Z,3.60
2018-01-20T14:19:31.447Z,3.20
2018-01-20T14:22:00.519Z,3.60
2018-01-20T14:24:28.913Z,1.97
2018-01-20T14:26:57.227Z,2.60
2018-01-20T14:29:25.559Z,2.70
2018-01-20T14:31:54.147Z,2.80
2018-01-20T14:34:23.955Z,3.10
2018-01-20T14:36:52.296Z,2.93
2018-01-20T14:39:20.799Z,3.00
2018-01-20T14:41:49.112Z,4.10
2018-01-20T14:44:17.417Z,4.50
2018-01-20T14:46:45.763Z,3.80
2018-01-20T14:49:14.128Z,4.10
2018-01-20T14:51:42.455Z,3.60
2018-01-20T14:54:10.825Z,5.10
2018-01-20T14:56:39.176Z,3.30
2018-01-20T14:59:07.474Z,3.30
2018-01-20T15:01:35.814Z,2.67
2018-01-20T15:04:04.964Z,2.80
2018-01-20T15:06:34.359Z,2.70
2018-01-20T15:09:02.905Z,3.20
2018-01-20T15:11:31.847Z,3.00
2018-01-20T15:14:00.707Z,3.00
2018-01-20T15:16:29.895Z,2.90
2018-01-20T15:19:00.041Z,3.10
2018-01-20T15:21:28.380Z,2.50
2018-01-20T15:23:57.610Z,3.20
2018-01-20T15:26:26.474Z,3.17
2018-01-20T15:28:55.215Z,2.20
2018-01-20T15:31:24.264Z,3.23
2018-01-20T15:33:54.455Z,7.37
2018-01-20T15:36:23.674Z,2.70
2018-01-20T15:38:53.600Z,3.20
2018-01-20T15:41:22.412Z,2.47
2018-01-20T15:43:51.347Z,3.30
2018-01-20T15:46:20.063Z,3.03
2018-01-20T15:48:48.367Z,3.70
2018-01-20T15:51:16.714Z,3.67
2018-01-20T15:53:45.056Z,4.50
2018-01-20T15:56:13.357Z,5.40
2018-01-20T15:58:41.683Z,4.40
2018-01-20T16:01:10.273Z,4.13
2018-01-20T16:03:38.614Z,3.23
2018-01-20T16:06:07.312Z,5.50
2018-01-20T16:08:36.179Z,5.60
2018-01-20T16:11:04.526Z,5.30
2018-01-20T16:13:33.615Z,6.10
2018-01-20T16:16:01.968Z,6.17
2018-01-20T16:18:30.284Z,5.43
2018-01-20T16:20:59.109Z,4.20
2018-01-20T16:23:28.307Z,3.67
2018-01-20T16:25:56.713Z,4.40
2018-01-20T16:28:26.413Z,3.60
2018-01-20T16:30:55.535Z,3.97
2018-01-20T16:33:24.189Z,3.93
2018-01-20T16:35:53.421Z,4.00
2018-01-20T16:38:21.919Z,4.70
2018-01-20T16:40:50.548Z,4.60
2018-01-20T16:43:19.474Z,5.43
2018-01-20T16:45:47.877Z,4.23
2018-01-20T16:48:16.380Z,4.37
2018-01-20T16:50:44.888Z,5.13
2018-01-20T16:53:13.251Z,7.10
2018-01-20T16:55:42.353Z,4.93
2018-01-20T16:58:10.764Z,4.63
2018-01-20T17:00:39.083Z,5.00
2018-01-20T17:03:07.416Z,3.60
2018-01-20T17:05:36.543Z,3.50
2018-01-20T17:08:04.844Z,2.67
2018-01-20T17:10:33.191Z,3.67
2018-01-20T17:13:01.594Z,3.67
2018-01-20T17:15:29.893Z,3.93
2018-01-20T17:17:58.431Z,3.30
2018-01-20T17:20:28.663Z,2.50
2018-01-20T17:22:57.455Z,3.47
2018-01-20T17:25:26.717Z,3.27
2018-01-20T17:27:59.379Z,3.60
2018-01-20T17:30:27.736Z,4.17
2018-01-20T17:32:56.494Z,7.00
2018-01-20T17:35:25.639Z,4.90
2018-01-20T17:37:53.956Z,4.23
2018-01-20T17:40:22.255Z,4.50
2018-01-20T17:42:50.795Z,3.60
2018-01-20T17:45:19.728Z,3.50
2018-01-20T17:47:48.775Z,4.70
2018-01-20T17:50:17.658Z,4.27
2018-01-20T17:52:46.019Z,5.27
2018-01-20T17:55:14.400Z,6.83
2018-01-20T17:57:42.738Z,6.70
2018-01-20T18:00:11.095Z,9.57
2018-01-20T18:02:39.460Z,11.27
2018-01-20T18:05:07.814Z,6.27
2018-01-20T18:07:36.945Z,5.83
2018-01-20T18:10:05.395Z,6.10
2018-01-20T18:12:33.960Z,6.50
2018-01-20T18:15:02.324Z,7.10
2018-01-20T18:17:30.680Z,6.87
2018-01-20T18:19:59.051Z,6.65
2018-01-20T18:22:28.026Z,8.65
2018-01-20T18:24:56.639Z,14.77
2018-01-20T18:27:24.948Z,10.05
2018-01-20T18:29:53.255Z,9.70
2018-01-20T18:32:22.079Z,9.82
2018-01-20T18:34:50.396Z,11.93
2018-01-20T18:37:19.483Z,10.93
2018-01-20T18:39:48.667Z,10.80
2018-01-20T18:42:17.029Z,14.27
2018-01-20T18:44:45.860Z,13.50
2018-01-20T18:47:14.257Z,10.03
2018-01-20T18:49:43.018Z,9.38
2018-01-20T18:52:11.344Z,12.47
2018-01-20T18:54:40.413Z,10.00
2018-01-20T18:57:08.723Z,8.60
2018-01-20T18:59:37.225Z,10.30
2018-01-20T19:02:05.627Z,11.70
2018-01-20T19:04:34.303Z,10.43
2018-01-20T19:07:02.616Z,13.10
2018-01-20T19:09:31.039Z,14.02
2018-01-20T19:11:59.356Z,13.02
2018-01-20T19:14:27.719Z,13.83
2018-01-20T19:16:56.871Z,11.82
2018-01-20T19:19:25.239Z,10.97
2018-01-20T19:21:54.587Z,14.18
2018-01-20T19:24:23.595Z,15.32
2018-01-20T19:26:52.302Z,15.30
2018-01-20T19:29:21.987Z,17.45
2018-01-20T19:31:50.409Z,16.20
2018-01-20T19:34:18.739Z,14.37
2018-01-20T19:36:47.146Z,12.43
2018-01-20T19:39:15.511Z,14.75
2018-01-20T19:41:43.831Z,10.90
2018-01-20T19:44:12.776Z,10.48
2018-01-20T19:46:41.851Z,12.88
2018-01-20T19:49:10.968Z,11.45
2018-01-20T19:51:40.055Z,12.57
2018-01-20T19:54:09.536Z,15.80
2018-01-20T19:56:38.743Z,14.05
2018-01-20T19:59:07.164Z,15.90
2018-01-20T20:01:35.522Z,13.20
2018-01-20T20:04:04.270Z,14.85
2018-01-20T20:06:32.591Z,15.15
2018-01-20T20:09:01.563Z,15.63
2018-01-20T20:11:29.957Z,20.13
2018-01-20T20:13:58.314Z,16.80
2018-01-20T20:16:26.799Z,14.30
2018-01-20T20:18:55.166Z,15.50
2018-01-20T20:21:23.985Z,14.50
2018-01-20T20:23:54.773Z,15.83
2018-01-20T20:26:23.124Z,14.98
2018-01-20T20:28:53.335Z,19.42
2018-01-20T20:31:21.894Z,18.70
2018-01-20T20:33:50.976Z,18.57
2018-01-20T20:36:19.331Z,30.03
2018-01-20T20:38:47.707Z,26.90
2018-01-20T20:41:16.170Z,25.67
2018-01-20T20:43:44.565Z,29.50
2018-01-20T20:46:12.937Z,24.97
2018-01-20T20:48:41.285Z,27.23
2018-01-20T20:51:09.791Z,33.03
2018-01-20T20:53:38.156Z,28.43
2018-01-20T20:56:06.527Z,18.20
2018-01-20T20:58:34.955Z,18.47
2018-01-20T21:01:03.731Z,21.73
2018-01-20T21:03:32.199Z,40.40
2018-01-20T21:06:00.867Z,51.40
2018-01-20T21:08:31.765Z,45.03
2018-01-20T21:11:00.220Z,30.48
2018-01-20T21:13:30.651Z,28.40
2018-01-20T21:15:59.222Z,26.98
2018-01-20T21:18:27.534Z,23.55
2018-01-20T21:20:56.364Z,22.65
2018-01-20T21:23:28.188Z,22.67
2018-01-20T21:25:56.557Z,25.02
2018-01-20T21:28:25.522Z,26.43
2018-01-20T21:30:54.023Z,26.95
2018-01-20T21:33:22.379Z,28.98
2018-01-20T21:35:50.745Z,29.27
2018-01-20T21:38:21.353Z,27.50
2018-01-20T21:40:50.474Z,28.97
2018-01-20T21:43:19.854Z,28.70
2018-01-20T21:45:48.351Z,38.55
2018-01-20T21:48:16.974Z,31.58
2018-01-20T21:50:45.803Z,30.65
2018-01-20T21:53:14.736Z,29.60
2018-01-20T21:55:44.770Z,29.73
2018-01-20T21:58:13.081Z,27.50
2018-01-20T22:00:42.083Z,27.67
2018-01-20T22:03:10.879Z,28.92
2018-01-20T22:05:39.212Z,25.52
2018-01-20T22:08:07.597Z,27.00
2018-01-20T22:10:36.103Z,28.17
2018-01-20T22:13:05.134Z,26.20
2018-01-20T22:15:33.936Z,24.40
2018-01-20T22:18:02.248Z,23.17
2018-01-20T22:20:31.485Z,22.00
2018-01-20T22:23:00.276Z,25.10
2018-01-20T22:25:28.650Z,18.50
2018-01-20T22:27:57.659Z,10.90
2018-01-20T22:30:26.199Z,10.67
2018-01-20T22:32:55.287Z,9.40
2018-01-20T22:35:23.594Z,8.97
2018-01-20T22:37:52.723Z,10.05
2018-01-20T22:40:21.093Z,8.07
2018-01-20T22:42:49.431Z,12.85
2018-01-20T22:45:17.836Z,8.00
2018-01-20T22:47:47.354Z,7.80
2018-01-20T22:50:15.733Z,8.00
2018-01-20T22:52:44.755Z,7.30
2018-01-20T22:55:13.787Z,8.50
2018-01-20T22:57:42.180Z,8.70
2018-01-20T23:00:10.785Z,6.97
2018-01-20T23:02:40.159Z,8.07
2018-01-20T23:05:09.150Z,7.80
2018-01-20T23:07:37.523Z,7.43
2018-01-20T23:10:05.836Z,8.60
2018-01-20T23:12:34.280Z,7.57
2018-01-20T23:15:02.631Z,8.20
2018-01-20T23:17:30.994Z,7.37
2018-01-20T23:19:59.351Z,7.53
2018-01-20T23:22:27.708Z,6.70
2018-01-20T23:24:56.024Z,6.50
2018-01-20T23:27:24.877Z,6.55
2018-01-20T23:29:53.190Z,6.03
2018-01-20T23:32:21.500Z,5.67
2018-01-20T23:34:50.083Z,5.60
2018-01-20T23:37:18.879Z,5.67
2018-01-20T23:39:47.188Z,4.95
2018-01-20T23:42:15.559Z,4.90
2018-01-20T23:44:44.049Z,4.20
2018-01-20T23:47:12.371Z,4.17
2018-01-20T23:49:41.510Z,2.60
2018-01-20T23:52:09.827Z,3.80
2018-01-20T23:54:38.128Z,3.80
2018-01-20T23:57:06.908Z,3.20
2018-01-20T23:59:35.283Z,2.22
